Stockbridge, Georgia
Current Conditions -  °F | °C
As of 8:52 AM on Monday 20 Oct 2014 (Local Time) from KATL Reporting Station
Few Clouds Few Clouds  
Wind Chill: 56°   Ceiling: Unl
Heat Index: 56°   Visibility: 10mi
Dew Point: 50°   Wind: 0mph
Humidity: 80%   Direction: NA
Pressure: 30.11"   Gusts: NA
Location:  33.54°N, 84.23°W
Report Text: KATL 201252Z 00000KT 10SM FEW250 13/10 A3011 RMK AO2 SLP195 T01330100
Loading
Personal Weather Stations






























Interactive Weather Map New forecast layout! Learn more

10-Day Weather Forecast

Advertisements
Track Severe Weather on mobile